Time;durP1;ratioP1;P1;durP2;ratioP2;P2;SDS_P1;SDS_P2;PMS_P1;PMS_P2;Temp;Humidity;BMP_temperature;BMP_pressure;BME280_temperature;BME280_humidity;BME280_pressure;Samples;Min_cycle;Max_cycle;Signal;HPM_P1;HPM_P2
2024/01/01 00:01:43;;;;;;;29.38;16.90;;;;;;;;;;5005387;28;20673;-63
2024/01/01 00:04:10;;;;;;;38.00;22.63;;;;;;;;;;5007193;28;20026;-63
2024/01/01 00:06:36;;;;;;;32.50;19.38;;;;;;;;;;5006495;28;20026;-63
2024/01/01 00:09:02;;;;;;;31.67;18.55;;;;;;;;;;5006855;28;20033;-63
2024/01/01 00:11:28;;;;;;;31.33;19.02;;;;;;;;;;5006163;28;20060;-63
2024/01/01 00:13:54;;;;;;;39.70;19.65;;;;;;;;;;5006874;28;20029;-63
2024/01/01 00:16:20;;;;;;;39.95;21.67;;;;;;;;;;5006487;28;20040;-63
2024/01/01 00:18:47;;;;;;;33.58;22.08;;;;;;;;;;5007382;28;20091;-63
2024/01/01 00:21:13;;;;;;;36.10;20.58;;;;;;;;;;5007202;28;20029;-63
2024/01/01 00:23:39;;;;;;;36.50;20.27;;;;;;;;;;5007623;28;20116;-63
2024/01/01 00:26:06;;;;;;;36.00;21.52;;;;;;;;;;5007037;28;20124;-63
2024/01/01 00:28:32;;;;;;;37.85;21.85;;;;;;;;;;5007957;28;20566;-63
2024/01/01 00:30:58;;;;;;;39.65;25.48;;;;;;;;;;5007181;28;20038;-63
2024/01/01 00:33:24;;;;;;;35.95;18.90;;;;;;;;;;5005456;28;20022;-63
2024/01/01 00:35:50;;;;;;;29.65;18.13;;;;;;;;;;5006733;28;20045;-63
2024/01/01 00:38:16;;;;;;;29.33;17.38;;;;;;;;;;5006889;28;20112;-63
2024/01/01 00:40:42;;;;;;;31.50;16.38;;;;;;;;;;5006930;28;20038;-63
2024/01/01 00:43:08;;;;;;;32.90;19.17;;;;;;;;;;5007051;28;20465;-63
2024/01/01 00:45:34;;;;;;;35.88;21.00;;;;;;;;;;5006447;28;21357;-63
2024/01/01 00:48:00;;;;;;;41.95;23.35;;;;;;;;;;5005092;28;20168;-63
2024/01/01 00:50:26;;;;;;;29.75;17.35;;;;;;;;;;5005615;28;20030;-63
2024/01/01 00:52:53;;;;;;;34.40;20.20;;;;;;;;;;5006459;28;20140;-63
2024/01/01 00:55:19;;;;;;;32.38;18.98;;;;;;;;;;5006720;28;20033;-63
2024/01/01 00:57:45;;;;;;;37.13;19.98;;;;;;;;;;5006932;28;20043;-62
2024/01/01 01:00:11;;;;;;;34.35;20.88;;;;;;;;;;5006185;28;20034;-62
2024/01/01 01:02:37;;;;;;;30.20;19.55;;;;;;;;;;5006608;28;20032;-62
2024/01/01 01:05:03;;;;;;;35.65;19.75;;;;;;;;;;5004803;28;20029;-62
2024/01/01 01:07:30;;;;;;;35.05;20.05;;;;;;;;;;5006756;28;20033;-62
2024/01/01 01:09:56;;;;;;;38.13;19.75;;;;;;;;;;5006238;28;20988;-62
2024/01/01 01:12:22;;;;;;;30.17;18.52;;;;;;;;;;5006503;28;20748;-62
2024/01/01 01:14:49;;;;;;;32.60;19.55;;;;;;;;;;5006754;28;20125;-62
2024/01/01 01:17:15;;;;;;;32.35;20.30;;;;;;;;;;5005335;28;20168;-62
2024/01/01 01:19:41;;;;;;;31.10;19.08;;;;;;;;;;5006582;28;20057;-62
2024/01/01 01:22:07;;;;;;;40.38;23.88;;;;;;;;;;5005440;28;20092;-62
2024/01/01 01:24:33;;;;;;;40.95;24.92;;;;;;;;;;5007389;28;20033;-62
2024/01/01 01:26:59;;;;;;;42.78;24.85;;;;;;;;;;5009890;28;20481;-63
2024/01/01 01:29:25;;;;;;;40.10;24.83;;;;;;;;;;5009883;28;20060;-62
2024/01/01 01:31:51;;;;;;;38.85;23.60;;;;;;;;;;5010037;28;20037;-63
2024/01/01 01:34:18;;;;;;;38.47;23.35;;;;;;;;;;5010193;28;20041;-63
2024/01/01 01:36:44;;;;;;;41.40;24.17;;;;;;;;;;5009264;28;20033;-62
2024/01/01 01:39:11;;;;;;;41.63;24.63;;;;;;;;;;5009126;28;21768;-62
2024/01/01 01:41:38;;;;;;;40.25;24.50;;;;;;;;;;5010461;28;20068;-62
2024/01/01 01:44:04;;;;;;;40.60;24.88;;;;;;;;;;5009710;28;20161;-62
2024/01/01 01:46:30;;;;;;;39.60;23.65;;;;;;;;;;5010809;28;20053;-63
2024/01/01 01:48:57;;;;;;;39.42;25.35;;;;;;;;;;5010629;28;20984;-63
2024/01/01 01:51:24;;;;;;;38.58;24.70;;;;;;;;;;5010126;28;20711;-63
2024/01/01 01:53:50;;;;;;;41.30;25.67;;;;;;;;;;5010096;28;20040;-63
2024/01/01 01:56:17;;;;;;;37.28;24.92;;;;;;;;;;5009603;28;20045;-63
2024/01/01 01:58:44;;;;;;;37.15;24.75;;;;;;;;;;5009003;28;20037;-63
2024/01/01 02:01:11;;;;;;;39.33;25.42;;;;;;;;;;5009855;28;20025;-63
2024/01/01 02:03:37;;;;;;;39.97;25.27;;;;;;;;;;5009711;28;20030;-63
2024/01/01 02:06:04;;;;;;;32.78;20.45;;;;;;;;;;5009138;28;20041;-63
2024/01/01 02:08:30;;;;;;;33.38;20.52;;;;;;;;;;5008004;28;20072;-63
2024/01/01 02:10:57;;;;;;;29.17;19.52;;;;;;;;;;5009726;28;20050;-63
2024/01/01 02:13:30;;;;;;;33.60;19.65;;;;;;;;;;5008965;28;20030;-62
2024/01/01 02:15:56;;;;;;;27.30;18.73;;;;;;;;;;5007862;28;20489;-63
2024/01/01 02:18:23;;;;;;;30.92;17.85;;;;;;;;;;5010180;28;20033;-63
2024/01/01 02:20:49;;;;;;;30.20;17.17;;;;;;;;;;5009723;28;20034;-63
2024/01/01 02:23:16;;;;;;;28.85;18.20;;;;;;;;;;5009047;28;20029;-63
2024/01/01 02:25:42;;;;;;;29.15;17.85;;;;;;;;;;5008847;28;20493;-63
2024/01/01 02:28:08;;;;;;;28.90;17.27;;;;;;;;;;5009443;28;20436;-63
2024/01/01 02:30:34;;;;;;;34.00;18.88;;;;;;;;;;5009243;28;20496;-63
2024/01/01 02:33:05;;;;;;;25.77;17.05;;;;;;;;;;5009717;28;20041;-63
2024/01/01 02:35:32;;;;;;;29.58;18.33;;;;;;;;;;5009152;28;20034;-63
2024/01/01 02:37:58;;;;;;;30.40;19.10;;;;;;;;;;5009099;28;20038;-63
2024/01/01 02:40:24;;;;;;;32.88;18.48;;;;;;;;;;5007887;28;20037;-63
2024/01/01 02:42:50;;;;;;;32.90;19.58;;;;;;;;;;5008552;28;20033;-63
2024/01/01 02:45:16;;;;;;;29.17;18.30;;;;;;;;;;5008972;28;20033;-63
2024/01/01 02:47:43;;;;;;;29.58;17.40;;;;;;;;;;5008624;28;20037;-63
2024/01/01 02:50:09;;;;;;;30.25;17.30;;;;;;;;;;5007694;28;20601;-63
2024/01/01 02:52:35;;;;;;;23.95;16.95;;;;;;;;;;5008639;28;20022;-63
2024/01/01 02:55:01;;;;;;;27.45;16.83;;;;;;;;;;5007966;28;20036;-63
2024/01/01 02:57:27;;;;;;;24.67;15.57;;;;;;;;;;5008607;28;20037;-63
2024/01/01 02:59:53;;;;;;;26.85;14.23;;;;;;;;;;5008678;28;21001;-63
2024/01/01 03:02:19;;;;;;;21.05;13.13;;;;;;;;;;5008962;28;20495;-63
2024/01/01 03:04:45;;;;;;;24.15;14.25;;;;;;;;;;5008125;28;21013;-63
2024/01/01 03:07:11;;;;;;;21.08;13.43;;;;;;;;;;5008222;28;20037;-62
2024/01/01 03:09:37;;;;;;;23.42;13.07;;;;;;;;;;5007920;28;20045;-62
2024/01/01 03:12:05;;;;;;;23.95;13.88;;;;;;;;;;5007494;28;20177;-62
2024/01/01 03:14:31;;;;;;;21.63;12.63;;;;;;;;;;5024208;28;20163;-62
2024/01/01 03:16:57;;;;;;;20.23;11.43;;;;;;;;;;5007920;28;20117;-62
2024/01/01 03:19:23;;;;;;;23.65;12.00;;;;;;;;;;5008272;28;20045;-62
2024/01/01 03:21:49;;;;;;;21.35;12.52;;;;;;;;;;5006903;28;20036;-62
2024/01/01 03:24:15;;;;;;;22.15;12.30;;;;;;;;;;5007889;28;20029;-62
2024/01/01 03:26:42;;;;;;;19.42;11.38;;;;;;;;;;5008367;28;20046;-63
2024/01/01 03:29:08;;;;;;;22.38;12.13;;;;;;;;;;5007470;28;20029;-63
2024/01/01 03:31:34;;;;;;;26.70;11.73;;;;;;;;;;5008619;28;20041;-63
2024/01/01 03:34:00;;;;;;;22.52;10.52;;;;;;;;;;5006983;28;20482;-63
2024/01/01 03:36:26;;;;;;;21.52;9.57;;;;;;;;;;5007884;28;20694;-63
2024/01/01 03:38:52;;;;;;;20.40;10.00;;;;;;;;;;5007609;28;20042;-63
2024/01/01 03:41:18;;;;;;;18.92;9.38;;;;;;;;;;5007958;28;20151;-63
2024/01/01 03:43:44;;;;;;;17.58;8.77;;;;;;;;;;5008088;28;20115;-63
2024/01/01 03:46:10;;;;;;;16.50;8.40;;;;;;;;;;5007828;28;20071;-63
2024/01/01 03:48:36;;;;;;;20.38;9.77;;;;;;;;;;5006830;28;20037;-63
2024/01/01 03:51:02;;;;;;;20.10;9.65;;;;;;;;;;5007690;28;20432;-62
2024/01/01 03:53:28;;;;;;;21.33;9.02;;;;;;;;;;5007391;28;20140;-62
2024/01/01 03:55:55;;;;;;;16.73;8.32;;;;;;;;;;5007090;28;20030;-62
2024/01/01 03:58:21;;;;;;;16.38;7.43;;;;;;;;;;5007275;28;20512;-62
2024/01/01 04:00:47;;;;;;;14.68;6.38;;;;;;;;;;4996211;28;20418;-63
2024/01/01 04:03:13;;;;;;;15.95;7.82;;;;;;;;;;5007348;28;20061;-63
2024/01/01 04:05:39;;;;;;;13.43;5.53;;;;;;;;;;5007971;28;20030;-63
2024/01/01 04:08:05;;;;;;;14.63;5.75;;;;;;;;;;5007728;28;20037;-63
2024/01/01 04:10:31;;;;;;;16.27;5.22;;;;;;;;;;5007544;28;20049;-63
2024/01/01 04:12:57;;;;;;;11.18;4.80;;;;;;;;;;5008473;28;20037;-63
2024/01/01 04:15:23;;;;;;;15.35;5.00;;;;;;;;;;5007245;28;20037;-62
2024/01/01 04:17:49;;;;;;;12.90;5.90;;;;;;;;;;5007465;28;20034;-63
2024/01/01 04:20:16;;;;;;;9.75;4.57;;;;;;;;;;5008018;28;20141;-63
2024/01/01 04:22:42;;;;;;;13.35;4.05;;;;;;;;;;5008537;28;20043;-63
2024/01/01 04:25:08;;;;;;;16.27;6.10;;;;;;;;;;5007403;28;20034;-63
2024/01/01 04:27:35;;;;;;;9.77;4.63;;;;;;;;;;5008237;28;20033;-63
2024/01/01 04:30:01;;;;;;;11.85;4.30;;;;;;;;;;5008320;28;20025;-63
2024/01/01 04:32:27;;;;;;;18.70;5.60;;;;;;;;;;5007006;28;20068;-63
2024/01/01 04:34:54;;;;;;;10.10;3.88;;;;;;;;;;5008210;28;20065;-63
2024/01/01 04:37:20;;;;;;;9.25;3.55;;;;;;;;;;5008522;28;20038;-63
2024/01/01 04:39:46;;;;;;;9.32;3.05;;;;;;;;;;5007254;28;20033;-63
2024/01/01 04:42:12;;;;;;;9.20;3.60;;;;;;;;;;5007909;28;21822;-63
2024/01/01 04:44:38;;;;;;;11.35;3.28;;;;;;;;;;5008104;28;20029;-63
2024/01/01 04:47:04;;;;;;;11.35;3.92;;;;;;;;;;5007604;28;20036;-63
2024/01/01 04:49:30;;;;;;;8.32;3.10;;;;;;;;;;5007389;28;20030;-63
2024/01/01 04:51:56;;;;;;;9.10;3.03;;;;;;;;;;5008082;28;20030;-63
2024/01/01 04:54:22;;;;;;;12.77;3.13;;;;;;;;;;5007650;28;21676;-63
2024/01/01 04:56:48;;;;;;;12.77;3.15;;;;;;;;;;5008496;28;20718;-63
2024/01/01 04:59:14;;;;;;;9.50;2.70;;;;;;;;;;5010104;28;20144;-63
2024/01/01 05:01:40;;;;;;;9.57;3.03;;;;;;;;;;5009671;28;20034;-60
2024/01/01 05:04:06;;;;;;;11.85;3.25;;;;;;;;;;5009782;28;20152;-61
2024/01/01 05:06:32;;;;;;;9.20;2.85;;;;;;;;;;5010629;28;21888;-60
2024/01/01 05:08:58;;;;;;;11.00;2.67;;;;;;;;;;5009554;28;20788;-60
2024/01/01 05:11:24;;;;;;;8.00;2.42;;;;;;;;;;5010707;28;20068;-60
2024/01/01 05:13:50;;;;;;;10.52;3.33;;;;;;;;;;5010509;28;20057;-60
2024/01/01 05:16:17;;;;;;;8.35;2.00;;;;;;;;;;5010444;28;20368;-60
2024/01/01 05:18:43;;;;;;;7.70;2.17;;;;;;;;;;5010130;28;20037;-60
2024/01/01 05:21:09;;;;;;;11.65;2.60;;;;;;;;;;5010076;28;20036;-60
2024/01/01 05:23:35;;;;;;;11.55;2.50;;;;;;;;;;5009689;28;20451;-60
2024/01/01 05:26:01;;;;;;;9.43;2.97;;;;;;;;;;5009628;28;20472;-60
2024/01/01 05:28:27;;;;;;;13.35;3.00;;;;;;;;;;5010532;28;20029;-60
2024/01/01 05:30:53;;;;;;;9.73;2.78;;;;;;;;;;5009952;28;20037;-60
2024/01/01 05:33:19;;;;;;;8.60;2.33;;;;;;;;;;5010178;28;20029;-60
2024/01/01 05:35:45;;;;;;;10.63;3.00;;;;;;;;;;5008749;28;20568;-60
2024/01/01 05:38:11;;;;;;;13.18;3.33;;;;;;;;;;5009823;28;20034;-60
2024/01/01 05:40:42;;;;;;;12.95;2.47;;;;;;;;;;5009332;28;20033;-60
2024/01/01 05:43:08;;;;;;;8.80;2.67;;;;;;;;;;5009647;28;20037;-60
2024/01/01 05:45:34;;;;;;;11.23;2.53;;;;;;;;;;5010224;28;20107;-60
2024/01/01 05:48:00;;;;;;;12.85;2.80;;;;;;;;;;5009596;28;20049;-60
2024/01/01 05:50:28;;;;;;;11.73;2.63;;;;;;;;;;5008905;28;20041;-60
2024/01/01 05:52:54;;;;;;;9.93;2.42;;;;;;;;;;5009348;28;20033;-60
2024/01/01 05:55:20;;;;;;;8.57;2.40;;;;;;;;;;5009549;28;20037;-60
2024/01/01 05:57:46;;;;;;;14.48;3.33;;;;;;;;;;5009954;28;20125;-60
2024/01/01 06:00:12;;;;;;;9.77;2.40;;;;;;;;;;5009805;28;20034;-60
2024/01/01 06:02:38;;;;;;;11.13;2.30;;;;;;;;;;5009555;28;20038;-60
2024/01/01 06:05:05;;;;;;;8.35;2.80;;;;;;;;;;5008776;28;20061;-60
2024/01/01 06:07:31;;;;;;;12.40;2.67;;;;;;;;;;5008796;28;20076;-60
2024/01/01 06:09:57;;;;;;;8.40;2.33;;;;;;;;;;5008537;28;20478;-60
2024/01/01 06:12:24;;;;;;;7.90;2.33;;;;;;;;;;5009173;28;21401;-60
2024/01/01 06:14:50;;;;;;;15.00;2.42;;;;;;;;;;5009990;28;20056;-60
2024/01/01 06:17:16;;;;;;;10.80;2.67;;;;;;;;;;5008865;28;20048;-60
2024/01/01 06:19:42;;;;;;;10.35;2.28;;;;;;;;;;5008838;28;20037;-60
2024/01/01 06:22:08;;;;;;;7.55;2.00;;;;;;;;;;5009210;28;20037;-60
2024/01/01 06:24:34;;;;;;;7.82;2.17;;;;;;;;;;5009176;28;20034;-60
2024/01/01 06:27:00;;;;;;;11.75;2.95;;;;;;;;;;5008780;28;20038;-60
2024/01/01 06:29:26;;;;;;;10.20;2.25;;;;;;;;;;5009926;28;20045;-60
2024/01/01 06:31:53;;;;;;;6.75;1.67;;;;;;;;;;5009427;28;20574;-60
2024/01/01 06:34:19;;;;;;;9.70;2.03;;;;;;;;;;5008423;28;20045;-60
2024/01/01 06:36:45;;;;;;;6.57;1.73;;;;;;;;;;5008957;28;20033;-60
2024/01/01 06:39:12;;;;;;;14.65;2.60;;;;;;;;;;5007782;28;20030;-60
2024/01/01 06:41:38;;;;;;;9.52;1.90;;;;;;;;;;5009240;28;21099;-60
2024/01/01 06:44:04;;;;;;;9.75;2.75;;;;;;;;;;5008938;28;20072;-60
2024/01/01 06:46:30;;;;;;;10.60;2.78;;;;;;;;;;5008737;28;20061;-60
2024/01/01 06:48:56;;;;;;;9.20;2.35;;;;;;;;;;5008490;28;20037;-60
2024/01/01 06:51:22;;;;;;;10.98;2.63;;;;;;;;;;5008618;28;20029;-60
2024/01/01 06:53:48;;;;;;;9.68;2.47;;;;;;;;;;5008464;28;20033;-60
2024/01/01 06:56:14;;;;;;;17.63;3.70;;;;;;;;;;5007580;28;20697;-60
2024/01/01 06:58:41;;;;;;;13.30;2.88;;;;;;;;;;5008535;28;20048;-60
2024/01/01 07:01:07;;;;;;;12.43;2.17;;;;;;;;;;5007640;28;20373;-60
2024/01/01 07:03:33;;;;;;;14.10;3.55;;;;;;;;;;5008870;28;21207;-60
2024/01/01 07:05:59;;;;;;;12.15;2.53;;;;;;;;;;5008074;28;20168;-60
2024/01/01 07:08:25;;;;;;;10.73;2.35;;;;;;;;;;5008198;28;20041;-60
2024/01/01 07:10:51;;;;;;;11.23;2.95;;;;;;;;;;5006934;28;20080;-60
2024/01/01 07:13:17;;;;;;;12.93;2.78;;;;;;;;;;5008475;28;20025;-60
2024/01/01 07:15:44;;;;;;;12.55;2.17;;;;;;;;;;5007677;28;20150;-61
2024/01/01 07:18:10;;;;;;;10.90;3.03;;;;;;;;;;5008040;28;20026;-60
2024/01/01 07:20:36;;;;;;;9.32;2.80;;;;;;;;;;5007999;28;20030;-60
2024/01/01 07:23:02;;;;;;;7.13;2.00;;;;;;;;;;5006954;28;20972;-60
2024/01/01 07:25:28;;;;;;;6.90;2.13;;;;;;;;;;5007638;28;20049;-60
2024/01/01 07:27:54;;;;;;;10.85;2.88;;;;;;;;;;5007251;28;20030;-60
2024/01/01 07:30:20;;;;;;;6.55;2.17;;;;;;;;;;5007051;28;20033;-60
2024/01/01 07:32:46;;;;;;;7.80;1.65;;;;;;;;;;5008700;28;20046;-60
2024/01/01 07:35:12;;;;;;;7.97;1.58;;;;;;;;;;5006307;28;20034;-60
2024/01/01 07:37:39;;;;;;;6.47;1.40;;;;;;;;;;5007729;28;20037;-60
2024/01/01 07:40:05;;;;;;;5.03;1.27;;;;;;;;;;5007261;28;20064;-60
2024/01/01 07:42:38;;;;;;;3.65;1.23;;;;;;;;;;5038379;28;20505;-59
2024/01/01 07:45:04;;;;;;;6.53;1.00;;;;;;;;;;5038699;28;20047;-59
2024/01/01 07:47:30;;;;;;;4.82;1.25;;;;;;;;;;5038074;28;20819;-59
2024/01/01 07:49:56;;;;;;;4.43;0.85;;;;;;;;;;5038887;28;20045;-59
2024/01/01 07:52:22;;;;;;;2.85;0.60;;;;;;;;;;5038208;28;20025;-59
2024/01/01 07:54:54;;;;;;;6.38;0.93;;;;;;;;;;5038284;28;20040;-59
2024/01/01 07:57:20;;;;;;;2.97;0.88;;;;;;;;;;5038437;28;20103;-59
2024/01/01 07:59:47;;;;;;;2.95;0.60;;;;;;;;;;5037371;28;20026;-59
2024/01/01 08:02:13;;;;;;;1.73;0.45;;;;;;;;;;5038653;28;20128;-59
2024/01/01 08:04:39;;;;;;;3.45;0.60;;;;;;;;;;5037643;28;20889;-59
2024/01/01 08:07:05;;;;;;;2.72;0.50;;;;;;;;;;5041605;28;20040;-59
2024/01/01 08:09:31;;;;;;;2.88;0.70;;;;;;;;;;5038761;28;20136;-59
2024/01/01 08:11:57;;;;;;;3.08;0.70;;;;;;;;;;5037553;28;20068;-59
2024/01/01 08:14:23;;;;;;;4.80;1.00;;;;;;;;;;5039275;28;20060;-59
2024/01/01 08:16:49;;;;;;;2.90;0.65;;;;;;;;;;5037271;28;20025;-59
2024/01/01 08:19:15;;;;;;;5.53;0.73;;;;;;;;;;5038963;28;20146;-59
2024/01/01 08:21:41;;;;;;;4.32;0.90;;;;;;;;;;5038504;28;20042;-59
2024/01/01 08:24:07;;;;;;;4.60;1.00;;;;;;;;;;5038782;28;20072;-59
2024/01/01 08:26:33;;;;;;;7.82;1.05;;;;;;;;;;5038876;28;20115;-59
2024/01/01 08:28:59;;;;;;;4.10;1.15;;;;;;;;;;5039117;28;20025;-59
2024/01/01 08:31:26;;;;;;;7.20;1.45;;;;;;;;;;5038748;28;20106;-59
2024/01/01 08:33:52;;;;;;;3.33;1.10;;;;;;;;;;5037563;28;20083;-59
2024/01/01 08:36:21;;;;;;;5.07;1.48;;;;;;;;;;5038457;28;20033;-59
2024/01/01 08:38:48;;;;;;;6.72;1.30;;;;;;;;;;5038494;28;20036;-59
2024/01/01 08:41:14;;;;;;;9.25;1.35;;;;;;;;;;5037536;28;20507;-59
2024/01/01 08:43:40;;;;;;;7.65;1.52;;;;;;;;;;5038566;28;20029;-59
2024/01/01 08:46:06;;;;;;;7.47;1.30;;;;;;;;;;5037747;28;20040;-59
2024/01/01 08:48:32;;;;;;;6.13;1.38;;;;;;;;;;5037942;28;20094;-59
2024/01/01 08:50:59;;;;;;;8.00;1.30;;;;;;;;;;5037551;28;20041;-59
2024/01/01 08:53:25;;;;;;;5.57;1.65;;;;;;;;;;5027416;28;20029;-59
2024/01/01 08:55:52;;;;;;;9.52;2.28;;;;;;;;;;5024170;28;20091;-59
2024/01/01 08:58:18;;;;;;;8.95;1.13;;;;;;;;;;5024595;28;20816;-59
2024/01/01 09:00:44;;;;;;;6.03;1.27;;;;;;;;;;5024404;28;20124;-60
2024/01/01 09:03:10;;;;;;;8.57;1.40;;;;;;;;;;5023376;28;20388;-60
2024/01/01 09:05:37;;;;;;;4.82;0.80;;;;;;;;;;5024144;28;20051;-59
2024/01/01 09:08:03;;;;;;;7.68;1.35;;;;;;;;;;5023994;28;20609;-59
2024/01/01 09:10:29;;;;;;;6.15;0.82;;;;;;;;;;5022979;28;20037;-60
2024/01/01 09:12:55;;;;;;;3.40;0.80;;;;;;;;;;5024294;28;20033;-59
2024/01/01 09:15:21;;;;;;;2.78;1.00;;;;;;;;;;5024347;28;20029;-59
2024/01/01 09:17:47;;;;;;;8.40;1.20;;;;;;;;;;5024367;28;20033;-59
2024/01/01 09:20:13;;;;;;;8.93;1.13;;;;;;;;;;5023061;28;20044;-59
2024/01/01 09:22:39;;;;;;;4.53;1.10;;;;;;;;;;5024551;28;20057;-59
2024/01/01 09:25:05;;;;;;;7.03;1.00;;;;;;;;;;5023409;28;20044;-60
2024/01/01 09:27:31;;;;;;;7.65;1.30;;;;;;;;;;5024366;28;20096;-60
2024/01/01 09:29:57;;;;;;;3.85;0.85;;;;;;;;;;5024065;28;20033;-60
2024/01/01 09:32:23;;;;;;;4.55;0.70;;;;;;;;;;5024669;28;20049;-60
2024/01/01 09:34:50;;;;;;;4.63;0.90;;;;;;;;;;5024346;28;20029;-60
2024/01/01 09:37:16;;;;;;;2.85;0.77;;;;;;;;;;5022588;28;20471;-60
2024/01/01 09:39:43;;;;;;;3.45;0.52;;;;;;;;;;5024086;28;20082;-59
2024/01/01 09:42:09;;;;;;;3.83;0.75;;;;;;;;;;5023169;28;20052;-60
2024/01/01 09:44:37;;;;;;;4.63;0.77;;;;;;;;;;5024041;28;20068;-60
2024/01/01 09:47:05;;;;;;;3.85;0.63;;;;;;;;;;5023742;28;20025;-60
2024/01/01 09:49:31;;;;;;;5.88;0.75;;;;;;;;;;5024154;28;20028;-60
2024/01/01 09:51:57;;;;;;;4.05;1.05;;;;;;;;;;5023418;28;20622;-60
2024/01/01 09:54:23;;;;;;;6.65;1.98;;;;;;;;;;5023708;28;20041;-60
2024/01/01 09:56:49;;;;;;;5.45;1.10;;;;;;;;;;5023134;28;20029;-60
2024/01/01 09:59:33;;;;;;;11.07;1.20;;;;;;;;;;5021132;28;20033;-60
2024/01/01 10:02:04;;;;;;;4.53;0.88;;;;;;;;;;5023505;28;20564;-60
2024/01/01 10:04:30;;;;;;;2.28;0.60;;;;;;;;;;5021611;28;20028;-60
2024/01/01 10:06:56;;;;;;;6.55;1.13;;;;;;;;;;5023526;28;20079;-60
2024/01/01 10:09:22;;;;;;;10.43;1.60;;;;;;;;;;5023441;28;20033;-60
2024/01/01 10:11:48;;;;;;;5.65;0.90;;;;;;;;;;5023286;28;20045;-59
2024/01/01 10:14:15;;;;;;;6.55;1.20;;;;;;;;;;5020181;28;20041;-60
2024/01/01 10:16:42;;;;;;;5.35;1.05;;;;;;;;;;5023004;28;20033;-60
2024/01/01 10:19:09;;;;;;;7.38;1.88;;;;;;;;;;5022677;28;20032;-60
2024/01/01 10:21:36;;;;;;;9.40;1.63;;;;;;;;;;5022192;28;20025;-60
2024/01/01 10:24:21;;;;;;;8.63;2.70;;;;;;;;;;5022351;28;20028;-59
2024/01/01 10:26:47;;;;;;;13.05;1.70;;;;;;;;;;5021194;28;20876;-59
2024/01/01 10:29:14;;;;;;;9.10;1.70;;;;;;;;;;5019870;28;20136;-60
2024/01/01 10:31:44;;;;;;;9.43;1.50;;;;;;;;;;5022272;28;20535;-60
2024/01/01 10:34:11;;;;;;;10.55;1.67;;;;;;;;;;5021635;28;20070;-60
2024/01/01 10:36:38;;;;;;;14.70;2.03;;;;;;;;;;5022518;28;20524;-60
2024/01/01 10:39:08;;;;;;;11.02;2.30;;;;;;;;;;5021555;28;20075;-59
2024/01/01 10:41:35;;;;;;;10.40;1.88;;;;;;;;;;5019510;28;20186;-60
2024/01/01 10:44:03;;;;;;;12.35;1.95;;;;;;;;;;5022362;28;21055;-60
2024/01/01 10:46:37;;;;;;;14.95;2.50;;;;;;;;;;5021249;28;21257;-60
2024/01/01 10:49:05;;;;;;;13.43;2.03;;;;;;;;;;5021332;28;20025;-60
2024/01/01 10:51:41;;;;;;;10.13;1.85;;;;;;;;;;5021629;28;20033;-60
2024/01/01 10:54:26;;;;;;;14.80;2.55;;;;;;;;;;5022209;28;20126;-60
2024/01/01 10:56:58;;;;;;;9.88;1.52;;;;;;;;;;5021785;28;20057;-61
2024/01/01 10:59:26;;;;;;;13.05;1.92;;;;;;;;;;5022229;28;20408;-61
2024/01/01 11:01:54;;;;;;;11.15;1.63;;;;;;;;;;5020804;28;20552;-61
2024/01/01 11:04:21;;;;;;;14.73;2.38;;;;;;;;;;5021070;28;20063;-62
2024/01/01 11:06:47;;;;;;;19.42;2.03;;;;;;;;;;5021948;28;20115;-62
2024/01/01 11:09:19;;;;;;;9.25;1.30;;;;;;;;;;5022254;28;20029;-62
2024/01/01 11:11:46;;;;;;;12.70;2.05;;;;;;;;;;5022236;28;20033;-62
2024/01/01 11:14:23;;;;;;;14.02;2.60;;;;;;;;;;5022780;28;20424;-62
2024/01/01 11:16:50;;;;;;;12.57;2.20;;;;;;;;;;5020638;28;20045;-62
2024/01/01 11:19:35;;;;;;;16.13;1.60;;;;;;;;;;5020884;28;20188;-62
2024/01/01 11:22:20;;;;;;;15.55;2.95;;;;;;;;;;5020881;28;20037;-62
2024/01/01 11:24:47;;;;;;;13.05;2.20;;;;;;;;;;5022414;28;20834;-62
2024/01/01 11:27:25;;;;;;;10.55;1.73;;;;;;;;;;5021181;28;20064;-62
2024/01/01 11:29:51;;;;;;;11.23;1.80;;;;;;;;;;5022111;28;20098;-62
2024/01/01 11:32:18;;;;;;;9.90;1.77;;;;;;;;;;5011067;28;20849;-60
2024/01/01 11:34:44;;;;;;;15.23;2.38;;;;;;;;;;5013258;28;21765;-60
2024/01/01 11:37:10;;;;;;;12.70;2.28;;;;;;;;;;5012585;28;20047;-60
2024/01/01 11:39:36;;;;;;;12.60;2.05;;;;;;;;;;5014526;28;20718;-60
2024/01/01 11:42:02;;;;;;;9.32;1.42;;;;;;;;;;5014358;28;21355;-60
2024/01/01 11:44:28;;;;;;;9.45;1.30;;;;;;;;;;5013912;28;20573;-60
2024/01/01 11:46:55;;;;;;;13.40;1.83;;;;;;;;;;5013683;28;20037;-60
2024/01/01 11:49:21;;;;;;;8.95;1.67;;;;;;;;;;5012938;28;20464;-60
2024/01/01 11:51:53;;;;;;;8.70;1.90;;;;;;;;;;5013706;28;20091;-60
2024/01/01 11:54:19;;;;;;;15.70;2.10;;;;;;;;;;5013474;28;21567;-60
2024/01/01 11:56:46;;;;;;;11.45;2.17;;;;;;;;;;5015600;28;20037;-60
2024/01/01 11:59:12;;;;;;;20.92;2.17;;;;;;;;;;5014272;28;20046;-60
2024/01/01 12:01:40;;;;;;;16.00;2.28;;;;;;;;;;5014148;28;20485;-59
2024/01/01 12:04:10;;;;;;;14.40;2.40;;;;;;;;;;5014674;28;20025;-60
2024/01/01 12:06:36;;;;;;;17.38;2.90;;;;;;;;;;5014939;28;21782;-60
2024/01/01 12:09:06;;;;;;;14.02;2.45;;;;;;;;;;5017524;28;20120;-60
2024/01/01 12:11:33;;;;;;;16.27;2.72;;;;;;;;;;5021010;28;20581;-60
2024/01/01 12:13:59;;;;;;;10.27;2.15;;;;;;;;;;5021723;28;20061;-60
2024/01/01 12:16:25;;;;;;;12.20;1.95;;;;;;;;;;5022791;28;20064;-60
2024/01/01 12:19:01;;;;;;;11.77;2.35;;;;;;;;;;5022272;28;20033;-60
2024/01/01 12:21:44;;;;;;;16.48;2.70;;;;;;;;;;5038019;28;21219;-60
2024/01/01 12:24:14;;;;;;;17.27;2.88;;;;;;;;;;5020215;28;20026;-60
2024/01/01 12:26:40;;;;;;;13.55;2.03;;;;;;;;;;5017599;28;20029;-60
2024/01/01 12:29:21;;;;;;;12.70;2.95;;;;;;;;;;5024873;28;20029;-60
2024/01/01 12:31:48;;;;;;;12.27;2.20;;;;;;;;;;5025257;28;20057;-60
2024/01/01 12:34:15;;;;;;;19.30;2.85;;;;;;;;;;5024410;28;20055;-60
2024/01/01 12:36:46;;;;;;;13.57;2.13;;;;;;;;;;5025514;28;20106;-60
2024/01/01 12:39:18;;;;;;;11.43;2.08;;;;;;;;;;5023431;28;20564;-60
2024/01/01 12:41:45;;;;;;;14.02;2.03;;;;;;;;;;5024925;28;20588;-60
2024/01/01 12:44:11;;;;;;;14.10;2.53;;;;;;;;;;5025506;28;20404;-60
2024/01/01 12:46:37;;;;;;;10.23;2.10;;;;;;;;;;5025971;28;20057;-60
2024/01/01 12:49:05;;;;;;;14.18;2.05;;;;;;;;;;5026469;28;20087;-60
2024/01/01 12:51:31;;;;;;;10.85;1.75;;;;;;;;;;5025677;28;20564;-60
2024/01/01 12:53:58;;;;;;;12.65;2.20;;;;;;;;;;5023758;28;20025;-60
2024/01/01 12:56:25;;;;;;;10.52;1.63;;;;;;;;;;5024243;28;20032;-60
2024/01/01 12:58:51;;;;;;;12.70;1.90;;;;;;;;;;5022325;28;20026;-60
2024/01/01 13:01:17;;;;;;;13.88;2.03;;;;;;;;;;5023136;28;20033;-60
2024/01/01 13:03:44;;;;;;;12.93;2.75;;;;;;;;;;5022862;28;20025;-59
2024/01/01 13:06:11;;;;;;;13.27;2.10;;;;;;;;;;5023754;28;21580;-59
2024/01/01 13:08:37;;;;;;;9.55;1.30;;;;;;;;;;5024520;28;20069;-59
2024/01/01 13:11:07;;;;;;;12.25;2.30;;;;;;;;;;5023925;28;20037;-60
2024/01/01 13:13:34;;;;;;;9.50;1.75;;;;;;;;;;5024153;28;20036;-60
2024/01/01 13:16:01;;;;;;;12.05;1.75;;;;;;;;;;5025783;28;20967;-60
2024/01/01 13:18:27;;;;;;;9.27;1.73;;;;;;;;;;5024198;28;20032;-60
2024/01/01 13:20:53;;;;;;;9.73;2.15;;;;;;;;;;5023647;28;20061;-60
2024/01/01 13:23:19;;;;;;;7.38;1.42;;;;;;;;;;5023948;28;20029;-60
2024/01/01 13:25:47;;;;;;;14.98;2.60;;;;;;;;;;5024986;28;20083;-60
2024/01/01 13:28:13;;;;;;;13.63;2.40;;;;;;;;;;5023818;28;20734;-60
2024/01/01 13:30:40;;;;;;;16.27;2.13;;;;;;;;;;5024578;28;20335;-60
2024/01/01 13:33:06;;;;;;;15.20;2.08;;;;;;;;;;5023944;28;20033;-60
2024/01/01 13:35:33;;;;;;;22.33;2.17;;;;;;;;;;5024564;28;20061;-60
2024/01/01 13:38:00;;;;;;;10.02;2.53;;;;;;;;;;5023972;28;20028;-60
2024/01/01 13:40:27;;;;;;;8.52;1.45;;;;;;;;;;5023372;28;20065;-60
2024/01/01 13:42:53;;;;;;;16.13;3.00;;;;;;;;;;5023992;28;20037;-59
2024/01/01 13:45:19;;;;;;;10.20;2.00;;;;;;;;;;5024520;28;20123;-59
2024/01/01 13:47:47;;;;;;;12.13;2.20;;;;;;;;;;5024406;28;20037;-60
2024/01/01 13:50:13;;;;;;;14.75;2.20;;;;;;;;;;5024221;28;20083;-60
2024/01/01 13:52:40;;;;;;;15.38;2.65;;;;;;;;;;5024809;28;20741;-60
2024/01/01 13:55:06;;;;;;;7.38;1.48;;;;;;;;;;5024343;28;20056;-60
2024/01/01 13:57:32;;;;;;;9.63;1.67;;;;;;;;;;5024527;28;20037;-60
2024/01/01 13:59:58;;;;;;;13.48;2.17;;;;;;;;;;5024186;28;20029;-59
2024/01/01 14:02:25;;;;;;;8.00;1.80;;;;;;;;;;5024093;28;20037;-60
2024/01/01 14:04:51;;;;;;;13.60;2.20;;;;;;;;;;5024586;28;20086;-60
2024/01/01 14:07:17;;;;;;;8.75;1.88;;;;;;;;;;5024660;28;20102;-60
2024/01/01 14:09:43;;;;;;;11.70;2.60;;;;;;;;;;5024415;28;20033;-60
2024/01/01 14:12:09;;;;;;;13.68;2.42;;;;;;;;;;5024567;28;20146;-60
2024/01/01 14:14:35;;;;;;;11.63;1.50;;;;;;;;;;5024205;28;20041;-59
2024/01/01 14:17:01;;;;;;;9.77;2.10;;;;;;;;;;5024192;28;20580;-59
2024/01/01 14:19:27;;;;;;;11.70;2.20;;;;;;;;;;5024527;28;20047;-60
2024/01/01 14:21:53;;;;;;;11.23;1.55;;;;;;;;;;5023685;28;20087;-59
2024/01/01 14:24:19;;;;;;;13.20;2.00;;;;;;;;;;5024092;28;20041;-59
2024/01/01 14:26:46;;;;;;;12.27;2.13;;;;;;;;;;5023727;28;20079;-59
2024/01/01 14:29:13;;;;;;;11.18;1.80;;;;;;;;;;5023516;28;20115;-59